Time;durP1;ratioP1;P1;durP2;ratioP2;P2;SDS_P1;SDS_P2;PMS_P1;PMS_P2;Temp;Humidity;BMP_temperature;BMP_pressure;BME280_temperature;BME280_humidity;BME280_pressure;Samples;Min_cycle;Max_cycle;Signal;HPM_P1;HPM_P2
2022/03/16 00:00:12;;;;;;;49.22;29.77;;;5.40;99.90;;;;;;5033742;28;20202;-57
2022/03/16 00:02:39;;;;;;;54.13;29.02;;;5.40;99.90;;;;;;5033555;28;20229;-56
2022/03/16 00:05:07;;;;;;;54.00;33.40;;;5.40;99.90;;;;;;5033433;28;20248;-56
2022/03/16 00:07:35;;;;;;;55.40;30.95;;;5.30;99.90;;;;;;5033399;28;20570;-58
2022/03/16 00:10:02;;;;;;;50.92;30.33;;;5.30;99.90;;;;;;5033388;28;20206;-56
2022/03/16 00:12:29;;;;;;;53.38;30.48;;;5.30;99.90;;;;;;5032914;28;20225;-57
2022/03/16 00:14:56;;;;;;;52.80;30.73;;;5.30;99.90;;;;;;5032884;28;20218;-56
2022/03/16 00:17:23;;;;;;;59.10;32.55;;;5.30;99.90;;;;;;5032830;28;20222;-57
2022/03/16 00:19:50;;;;;;;64.35;33.58;;;5.30;99.90;;;;;;5033348;28;20207;-59
2022/03/16 00:22:18;;;;;;;66.90;33.88;;;5.40;99.90;;;;;;5032971;28;20224;-58
2022/03/16 00:24:46;;;;;;;52.25;30.33;;;5.40;99.90;;;;;;5034688;28;20328;-57
2022/03/16 00:27:13;;;;;;;56.70;32.60;;;5.40;99.90;;;;;;5037135;28;20670;-57
2022/03/16 00:29:40;;;;;;;61.28;32.60;;;5.50;99.90;;;;;;5037275;28;20205;-58
2022/03/16 00:32:08;;;;;;;51.45;33.28;;;5.60;99.90;;;;;;5037166;28;20218;-57
2022/03/16 00:34:35;;;;;;;58.08;32.78;;;5.60;99.90;;;;;;5037037;28;20226;-58
2022/03/16 00:37:02;;;;;;;53.50;31.33;;;5.60;99.90;;;;;;5037168;28;20201;-58
2022/03/16 00:39:29;;;;;;;64.97;33.97;;;5.70;99.90;;;;;;5037040;28;20206;-56
2022/03/16 00:41:58;;;;;;;60.15;33.88;;;5.70;99.90;;;;;;5036659;28;20732;-57
2022/03/16 00:44:25;;;;;;;53.75;32.28;;;5.80;99.90;;;;;;5037171;28;20198;-58
2022/03/16 00:46:53;;;;;;;53.42;31.92;;;5.80;99.90;;;;;;5037087;28;20205;-58
2022/03/16 00:49:20;;;;;;;55.50;31.17;;;5.80;99.90;;;;;;5037299;28;20198;-57
2022/03/16 00:51:47;;;;;;;54.88;29.80;;;5.80;99.90;;;;;;5036810;28;20202;-57
2022/03/16 00:54:14;;;;;;;55.33;31.92;;;5.80;99.90;;;;;;5036798;28;20218;-57
2022/03/16 00:56:41;;;;;;;53.70;32.60;;;5.90;99.90;;;;;;5036602;28;20202;-57
2022/03/16 00:59:09;;;;;;;57.30;32.72;;;5.90;99.90;;;;;;5036585;28;20198;-56
2022/03/16 01:01:38;;;;;;;55.03;31.63;;;5.90;99.90;;;;;;5036550;28;20209;-57
2022/03/16 01:04:05;;;;;;;50.95;31.90;;;5.90;99.90;;;;;;5036452;28;20369;-58
2022/03/16 01:06:32;;;;;;;52.88;30.50;;;5.90;99.90;;;;;;5038434;28;20202;-56
2022/03/16 01:08:59;;;;;;;46.00;29.30;;;5.90;99.90;;;;;;5038411;28;20213;-57
2022/03/16 01:11:26;;;;;;;48.42;29.92;;;5.90;99.90;;;;;;5038340;28;20214;-57
2022/03/16 01:13:53;;;;;;;53.30;30.40;;;5.90;99.90;;;;;;5037891;28;20222;-57
2022/03/16 01:16:22;;;;;;;48.10;29.90;;;5.90;99.90;;;;;;5038470;28;20202;-58
2022/03/16 01:18:49;;;;;;;49.72;29.83;;;5.90;99.90;;;;;;5038882;28;20213;-57
2022/03/16 01:21:16;;;;;;;49.78;29.13;;;5.90;99.90;;;;;;5038206;28;20213;-57
2022/03/16 01:23:43;;;;;;;52.42;29.55;;;5.90;99.90;;;;;;5037022;28;20237;-57
2022/03/16 01:26:10;;;;;;;53.13;30.02;;;5.90;99.90;;;;;;5036328;28;20207;-57
2022/03/16 01:28:37;;;;;;;49.58;29.02;;;5.90;99.90;;;;;;5036432;28;20209;-57
2022/03/16 01:31:04;;;;;;;47.58;29.83;;;5.90;99.90;;;;;;5035977;28;20206;-56
2022/03/16 01:33:33;;;;;;;47.28;27.70;;;5.90;99.90;;;;;;5035587;28;20234;-57
2022/03/16 01:36:00;;;;;;;48.72;27.75;;;5.90;99.90;;;;;;5035167;28;20213;-57
2022/03/16 01:38:27;;;;;;;45.78;27.02;;;5.90;99.90;;;;;;5036235;28;20206;-57
2022/03/16 01:40:54;;;;;;;42.20;27.35;;;5.80;99.90;;;;;;5036236;28;20218;-58
2022/03/16 01:43:21;;;;;;;44.92;28.20;;;5.70;99.90;;;;;;5036085;28;20223;-57
2022/03/16 01:45:50;;;;;;;45.70;28.00;;;5.70;99.90;;;;;;5036419;28;20205;-57
2022/03/16 01:48:17;;;;;;;44.45;27.08;;;5.60;99.90;;;;;;5035473;28;20597;-56
2022/03/16 01:50:46;;;;;;;41.88;27.73;;;5.50;99.90;;;;;;5035977;28;20199;-56
2022/03/16 01:53:13;;;;;;;47.55;26.95;;;5.40;99.90;;;;;;5035475;28;20222;-57
2022/03/16 01:55:42;;;;;;;51.92;29.40;;;5.30;99.90;;;;;;5035987;28;20226;-57
2022/03/16 01:58:11;;;;;;;46.53;28.27;;;5.20;99.90;;;;;;5035836;28;20198;-57
2022/03/16 02:00:39;;;;;;;50.97;27.25;;;5.20;99.90;;;;;;5035719;28;20210;-56
2022/03/16 02:03:07;;;;;;;46.28;27.05;;;5.10;99.90;;;;;;5035828;28;20585;-56
2022/03/16 02:05:34;;;;;;;50.13;29.58;;;5.00;99.90;;;;;;5035884;28;20198;-58
2022/03/16 02:08:03;;;;;;;48.63;28.27;;;5.00;99.90;;;;;;5035588;28;20682;-57
2022/03/16 02:10:31;;;;;;;52.03;30.67;;;4.90;99.90;;;;;;5035523;28;20213;-58
2022/03/16 02:12:58;;;;;;;52.65;29.20;;;4.90;99.90;;;;;;5035147;28;20222;-58
2022/03/16 02:15:25;;;;;;;44.42;28.77;;;4.90;99.90;;;;;;5035113;28;20225;-58
2022/03/16 02:17:55;;;;;;;44.97;27.05;;;4.80;99.90;;;;;;5035122;28;20206;-58
2022/03/16 02:20:22;;;;;;;59.40;31.88;;;4.80;99.90;;;;;;5034866;28;20765;-58
2022/03/16 02:22:53;;;;;;;49.75;28.70;;;4.80;99.90;;;;;;5034616;28;20241;-56
2022/03/16 02:25:21;;;;;;;56.97;29.33;;;4.70;99.90;;;;;;5034716;28;20199;-56
2022/03/16 02:27:48;;;;;;;49.90;29.02;;;4.70;99.90;;;;;;5035013;28;20199;-58
2022/03/16 02:30:15;;;;;;;49.42;30.58;;;4.70;99.90;;;;;;5034811;28;20206;-57
2022/03/16 02:32:42;;;;;;;58.38;31.27;;;4.60;99.90;;;;;;5034870;28;20226;-58
2022/03/16 02:35:09;;;;;;;60.22;30.05;;;4.60;99.90;;;;;;5034958;28;20222;-57
2022/03/16 02:37:38;;;;;;;48.47;29.60;;;4.60;99.90;;;;;;5034853;28;20206;-57
2022/03/16 02:40:09;;;;;;;50.95;28.90;;;4.60;99.90;;;;;;5034793;28;20203;-56
2022/03/16 02:42:37;;;;;;;43.22;26.13;;;4.50;99.90;;;;;;5034271;28;20223;-57
2022/03/16 02:45:05;;;;;;;46.10;27.50;;;4.50;99.90;;;;;;5034598;28;20204;-56
2022/03/16 02:47:33;;;;;;;45.30;26.42;;;4.40;99.90;;;;;;5034031;28;20202;-57
2022/03/16 02:50:01;;;;;;;46.70;28.95;;;4.40;99.90;;;;;;5034195;28;20293;-56
2022/03/16 02:52:29;;;;;;;40.42;25.33;;;4.40;99.90;;;;;;5034013;28;20250;-56
2022/03/16 02:54:57;;;;;;;40.97;24.33;;;4.30;99.90;;;;;;5034107;28;20702;-56
2022/03/16 02:57:25;;;;;;;39.67;25.77;;;4.30;99.90;;;;;;5034109;28;20690;-56
2022/03/16 02:59:52;;;;;;;40.95;24.70;;;4.20;99.90;;;;;;5034039;28;20202;-56
2022/03/16 03:02:19;;;;;;;37.35;25.48;;;4.10;99.90;;;;;;5034243;28;20222;-56
2022/03/16 03:04:46;;;;;;;40.85;24.17;;;4.10;99.90;;;;;;5033998;28;20551;-57
2022/03/16 03:07:13;;;;;;;44.05;23.23;;;4.00;99.90;;;;;;5033760;28;20198;-58
2022/03/16 03:09:41;;;;;;;43.17;23.20;;;3.90;99.90;;;;;;5034146;28;20206;-58
2022/03/16 03:12:09;;;;;;;39.25;21.75;;;3.90;99.90;;;;;;5033856;28;20226;-57
2022/03/16 03:14:37;;;;;;;32.60;21.80;;;3.80;99.90;;;;;;5033784;28;20226;-56
2022/03/16 03:17:05;;;;;;;32.28;20.55;;;3.80;99.90;;;;;;5034130;28;20229;-56
2022/03/16 03:19:32;;;;;;;33.20;21.80;;;3.70;99.90;;;;;;5034169;28;20232;-56
2022/03/16 03:22:00;;;;;;;30.58;21.25;;;3.60;99.90;;;;;;5033486;28;20223;-57
2022/03/16 03:24:27;;;;;;;28.48;20.13;;;3.60;99.90;;;;;;5033422;28;20218;-58
2022/03/16 03:26:54;;;;;;;32.25;21.13;;;3.50;99.90;;;;;;5033798;28;20559;-57
2022/03/16 03:29:21;;;;;;;32.83;19.95;;;3.50;99.90;;;;;;5033856;28;20214;-56
2022/03/16 03:31:50;;;;;;;30.33;19.85;;;3.40;99.90;;;;;;5033688;28;20592;-56
2022/03/16 03:34:17;;;;;;;32.58;21.70;;;3.30;99.90;;;;;;5033376;28;20701;-57
2022/03/16 03:36:44;;;;;;;31.00;21.10;;;3.30;99.90;;;;;;5033271;28;20209;-56
2022/03/16 03:39:11;;;;;;;32.88;21.10;;;3.30;99.90;;;;;;5033476;28;20202;-56
2022/03/16 03:41:38;;;;;;;36.90;22.00;;;3.30;99.90;;;;;;5033547;28;20550;-57
2022/03/16 03:44:06;;;;;;;35.10;22.60;;;3.30;99.90;;;;;;5033534;28;20544;-56
2022/03/16 03:46:33;;;;;;;34.03;21.88;;;3.30;99.90;;;;;;5033106;28;20667;-56
2022/03/16 03:49:02;;;;;;;36.90;21.30;;;3.30;99.90;;;;;;5033357;28;20203;-56
2022/03/16 03:51:29;;;;;;;29.65;20.35;;;3.30;99.90;;;;;;5033568;28;20206;-57
2022/03/16 03:53:56;;;;;;;36.78;21.77;;;3.20;99.90;;;;;;5033398;28;20226;-57
2022/03/16 03:56:23;;;;;;;27.88;19.95;;;3.20;99.90;;;;;;5033036;28;20226;-56
2022/03/16 03:58:50;;;;;;;30.92;19.77;;;3.20;99.90;;;;;;5032886;28;20214;-56
2022/03/16 04:01:17;;;;;;;33.55;20.67;;;3.10;99.90;;;;;;5032991;28;20202;-57
2022/03/16 04:03:44;;;;;;;27.88;19.23;;;3.10;99.90;;;;;;5033021;28;20228;-57
2022/03/16 04:09:27;;;;;;;30.08;19.42;;;3.00;99.90;;;;;;5093601;27;20546;-59
2022/03/16 04:11:54;;;;;;;31.92;21.05;;;3.00;99.90;;;;;;5092144;28;20700;-57
2022/03/16 04:14:21;;;;;;;34.95;21.95;;;2.90;99.90;;;;;;5092280;28;20200;-57
2022/03/16 04:16:49;;;;;;;35.60;22.08;;;2.90;99.90;;;;;;5091067;28;20205;-58
2022/03/16 04:19:16;;;;;;;35.92;21.33;;;2.90;99.90;;;;;;5090685;28;20548;-58
2022/03/16 04:24:28;;;;;;;38.83;25.63;;;2.90;99.90;;;;;;5055602;28;20635;-59
2022/03/16 04:26:55;;;;;;;34.13;22.40;;;2.90;99.90;;;;;;5051301;28;20201;-58
2022/03/16 04:29:23;;;;;;;45.42;24.05;;;3.00;99.90;;;;;;5051154;28;20221;-58
2022/03/16 04:31:50;;;;;;;42.63;24.13;;;3.00;99.90;;;;;;5050970;28;20202;-58
2022/03/16 04:34:17;;;;;;;37.60;23.75;;;3.00;99.90;;;;;;5050320;28;20229;-59
2022/03/16 04:36:44;;;;;;;37.88;23.98;;;3.10;99.90;;;;;;5050273;28;20209;-59
2022/03/16 04:39:12;;;;;;;40.22;24.45;;;3.10;99.90;;;;;;5050194;28;20201;-58
2022/03/16 04:41:40;;;;;;;38.60;23.25;;;3.20;99.90;;;;;;5049888;28;20678;-58
2022/03/16 04:44:07;;;;;;;37.13;23.30;;;3.20;99.90;;;;;;5049784;28;20222;-58
2022/03/16 04:46:34;;;;;;;77.80;28.77;;;3.20;99.90;;;;;;5049739;28;20693;-58
2022/03/16 04:49:02;;;;;;;49.78;25.75;;;3.20;99.90;;;;;;5049577;28;20225;-59
2022/03/16 04:51:29;;;;;;;44.42;25.20;;;3.20;99.90;;;;;;5056929;28;20205;-58
2022/03/16 04:53:56;;;;;;;37.22;23.33;;;3.20;99.90;;;;;;5061197;28;20728;-59
2022/03/16 04:56:23;;;;;;;45.80;24.60;;;3.30;99.90;;;;;;5060571;28;20285;-58
2022/03/16 04:58:51;;;;;;;54.13;26.33;;;3.30;99.90;;;;;;5059415;28;20202;-59
2022/03/16 05:01:19;;;;;;;51.72;26.05;;;3.40;99.90;;;;;;5058339;28;20604;-58
2022/03/16 05:03:47;;;;;;;37.92;23.33;;;3.40;99.90;;;;;;5059927;28;20225;-59
2022/03/16 05:06:14;;;;;;;47.08;25.27;;;3.40;99.90;;;;;;5059050;28;20209;-59
2022/03/16 05:08:41;;;;;;;64.60;25.15;;;3.40;99.90;;;;;;5053867;28;20218;-58
2022/03/16 05:11:08;;;;;;;55.42;23.88;;;3.40;99.90;;;;;;5052855;28;20202;-58
2022/03/16 05:13:37;;;;;;;71.85;24.35;;;3.30;99.90;;;;;;5052822;28;20229;-58
2022/03/16 05:16:07;;;;;;;75.28;23.20;;;3.30;99.90;;;;;;5054254;28;20198;-58
2022/03/16 05:18:34;;;;;;;71.30;24.55;;;3.20;99.90;;;;;;5050396;28;20245;-58
2022/03/16 05:21:03;;;;;;;80.57;23.30;;;3.20;99.90;;;;;;5036485;28;20198;-58
2022/03/16 05:23:30;;;;;;;144.07;28.20;;;3.20;99.90;;;;;;5036143;28;20261;-58
2022/03/16 05:25:57;;;;;;;69.88;22.98;;;3.20;99.90;;;;;;5036145;28;20210;-59
2022/03/16 05:28:25;;;;;;;55.15;22.13;;;3.20;99.90;;;;;;5037072;28;20694;-59
2022/03/16 05:30:52;;;;;;;128.75;26.88;;;3.20;99.90;;;;;;5036061;28;20198;-59
2022/03/16 05:33:21;;;;;;;72.72;24.42;;;3.20;99.90;;;;;;5036300;28;20226;-58
2022/03/16 05:35:48;;;;;;;127.43;26.77;;;3.20;99.90;;;;;;5036263;28;20674;-59
2022/03/16 05:38:16;;;;;;;105.18;25.60;;;3.20;99.90;;;;;;5037864;28;20210;-58
2022/03/16 05:40:44;;;;;;;111.72;28.10;;;3.30;99.90;;;;;;5038453;28;20286;-57
2022/03/16 05:43:13;;;;;;;69.72;25.85;;;3.20;99.90;;;;;;5039082;28;20226;-58
2022/03/16 05:45:40;;;;;;;70.80;23.98;;;3.20;99.90;;;;;;5039568;28;20198;-57
2022/03/16 05:48:07;;;;;;;49.92;24.20;;;3.20;99.90;;;;;;5038517;28;20222;-59
2022/03/16 05:50:38;;;;;;;59.10;26.20;;;3.30;99.90;;;;;;5041927;28;20445;-58
2022/03/16 05:53:05;;;;;;;51.83;24.48;;;3.30;99.90;;;;;;5042782;28;20699;-58
2022/03/16 05:55:32;;;;;;;66.38;25.38;;;3.40;99.90;;;;;;5040781;28;20206;-59
2022/03/16 05:58:00;;;;;;;59.65;24.23;;;3.40;99.90;;;;;;5040766;28;20202;-58
2022/03/16 06:00:27;;;;;;;53.70;23.85;;;3.40;99.90;;;;;;5036881;28;20206;-59
2022/03/16 06:02:55;;;;;;;55.08;22.85;;;3.50;99.90;;;;;;5035658;28;20233;-57
2022/03/16 06:05:22;;;;;;;57.47;25.13;;;3.50;99.90;;;;;;5035643;28;20297;-58
2022/03/16 06:07:51;;;;;;;49.88;23.92;;;3.50;99.90;;;;;;5035519;28;20285;-58
2022/03/16 06:10:19;;;;;;;46.05;23.70;;;3.50;99.90;;;;;;5035537;28;20595;-58
2022/03/16 06:12:54;;;;;;;34.45;23.05;;;3.50;99.90;;;;;;5035511;28;20637;-59
2022/03/16 06:15:22;;;;;;;65.30;24.70;;;3.50;99.90;;;;;;5035652;28;20754;-59
2022/03/16 06:17:49;;;;;;;51.15;23.90;;;3.40;99.90;;;;;;5035365;28;20214;-57
2022/03/16 06:20:16;;;;;;;43.95;25.42;;;3.40;99.90;;;;;;5035025;28;20234;-58
2022/03/16 06:22:44;;;;;;;86.53;25.13;;;3.50;99.90;;;;;;5035260;28;20292;-57
2022/03/16 06:25:12;;;;;;;41.30;23.27;;;3.40;99.90;;;;;;5034944;28;20293;-58
2022/03/16 06:27:39;;;;;;;29.48;21.20;;;3.40;99.90;;;;;;5035248;28;20697;-58
2022/03/16 06:30:08;;;;;;;36.40;22.17;;;3.50;99.90;;;;;;5035076;28;20203;-58
2022/03/16 06:32:35;;;;;;;38.30;21.60;;;3.60;99.90;;;;;;5033840;28;20228;-56
2022/03/16 06:35:03;;;;;;;36.00;22.88;;;3.60;99.90;;;;;;5038773;28;20229;-57
2022/03/16 06:37:30;;;;;;;48.42;22.77;;;3.60;99.90;;;;;;5048835;28;20202;-56
2022/03/16 06:39:57;;;;;;;38.63;24.35;;;3.60;99.90;;;;;;5049447;28;20337;-56
2022/03/16 06:42:26;;;;;;;39.33;22.90;;;3.70;99.90;;;;;;5049074;28;20242;-58
2022/03/16 06:44:53;;;;;;;35.67;24.15;;;3.80;99.90;;;;;;5046193;28;20612;-56
2022/03/16 06:47:20;;;;;;;33.15;23.00;;;3.90;99.90;;;;;;5040982;28;20675;-58
2022/03/16 06:49:47;;;;;;;34.92;21.40;;;4.00;99.90;;;;;;5035243;28;20320;-57
2022/03/16 06:52:14;;;;;;;36.35;22.70;;;4.10;99.90;;;;;;5034484;28;20796;-57
2022/03/16 06:54:41;;;;;;;30.75;21.83;;;4.10;99.90;;;;;;5034503;28;20203;-57
2022/03/16 06:57:09;;;;;;;31.73;21.17;;;4.10;99.90;;;;;;5035695;28;20377;-57
2022/03/16 06:59:37;;;;;;;30.50;20.42;;;4.20;99.90;;;;;;5034420;28;20198;-57
2022/03/16 07:02:05;;;;;;;26.13;20.17;;;4.30;99.90;;;;;;5035195;28;20202;-57
2022/03/16 07:04:32;;;;;;;32.60;21.83;;;4.40;99.90;;;;;;5037305;28;20190;-58
2022/03/16 07:06:59;;;;;;;27.95;20.48;;;4.50;99.90;;;;;;5034974;28;20233;-59
2022/03/16 07:09:27;;;;;;;28.70;21.20;;;4.60;99.90;;;;;;5035112;28;20215;-58
2022/03/16 07:11:54;;;;;;;29.92;20.38;;;4.60;99.90;;;;;;5035450;28;20306;-59
2022/03/16 07:14:33;;;;;;;28.20;21.67;;;4.70;99.90;;;;;;5035454;28;20576;-56
2022/03/16 07:17:03;;;;;;;24.85;19.88;;;4.80;99.90;;;;;;5035855;28;20190;-59
2022/03/16 07:19:30;;;;;;;23.98;19.35;;;4.90;99.90;;;;;;5035395;28;20199;-57
2022/03/16 07:21:58;;;;;;;26.85;20.45;;;5.00;99.90;;;;;;5034274;28;20198;-57
2022/03/16 07:24:26;;;;;;;28.17;19.95;;;5.00;99.90;;;;;;5034052;28;20225;-59
2022/03/16 07:26:55;;;;;;;25.83;20.45;;;5.20;99.90;;;;;;5034351;28;20203;-58
2022/03/16 07:29:23;;;;;;;26.73;20.48;;;5.20;99.90;;;;;;5034449;28;20221;-58
2022/03/16 07:31:50;;;;;;;24.55;19.40;;;5.30;99.90;;;;;;5036215;28;20285;-59
2022/03/16 07:34:18;;;;;;;26.35;19.52;;;5.40;99.90;;;;;;5036083;28;20230;-58
2022/03/16 07:36:46;;;;;;;27.42;18.58;;;5.60;99.90;;;;;;5034932;28;20217;-59
2022/03/16 07:39:13;;;;;;;24.38;18.90;;;5.70;99.90;;;;;;5035665;28;20202;-59
2022/03/16 07:41:40;;;;;;;28.25;21.10;;;5.80;99.90;;;;;;5035520;28;20214;-57
2022/03/16 07:44:07;;;;;;;22.33;19.33;;;5.90;99.90;;;;;;5034104;28;20692;-58
2022/03/16 07:46:35;;;;;;;27.05;20.10;;;6.00;99.90;;;;;;5034400;28;20682;-58
2022/03/16 07:49:02;;;;;;;26.90;19.98;;;6.10;99.90;;;;;;5035015;28;20224;-59
2022/03/16 07:51:30;;;;;;;26.02;19.95;;;6.30;99.90;;;;;;5034058;28;20233;-59
2022/03/16 07:53:58;;;;;;;29.17;20.13;;;6.40;99.90;;;;;;5038522;28;20562;-59
2022/03/16 07:56:25;;;;;;;26.52;19.95;;;6.50;99.90;;;;;;5039479;28;20301;-59
2022/03/16 07:58:53;;;;;;;24.63;19.30;;;6.50;99.90;;;;;;5041693;28;20198;-58
2022/03/16 08:01:21;;;;;;;25.70;21.40;;;6.60;99.90;;;;;;5040753;28;20198;-59
2022/03/16 08:03:48;;;;;;;22.05;18.50;;;6.70;99.90;;;;;;5040942;28;20233;-59
2022/03/16 08:06:15;;;;;;;26.02;19.65;;;6.90;99.90;;;;;;5043293;28;20206;-59
2022/03/16 08:08:44;;;;;;;29.13;20.85;;;7.10;99.90;;;;;;5041849;28;20214;-59
2022/03/16 08:11:11;;;;;;;26.33;19.92;;;7.30;99.90;;;;;;5039665;28;20206;-59
2022/03/16 08:13:38;;;;;;;24.90;19.83;;;7.50;99.90;;;;;;5037097;28;20306;-59
2022/03/16 08:16:06;;;;;;;23.20;18.98;;;7.80;99.90;;;;;;5036154;28;20207;-58
2022/03/16 08:18:34;;;;;;;25.48;20.02;;;8.10;99.90;;;;;;5035168;28;20198;-59
2022/03/16 08:21:02;;;;;;;22.88;19.13;;;8.30;99.90;;;;;;5033950;28;20216;-59
2022/03/16 08:23:29;;;;;;;22.45;18.63;;;8.40;99.90;;;;;;5033780;28;20320;-58
2022/03/16 08:25:58;;;;;;;23.10;19.00;;;8.60;99.90;;;;;;5034621;28;20206;-59
2022/03/16 08:28:26;;;;;;;22.42;18.23;;;8.90;99.90;;;;;;5038226;28;20206;-59
2022/03/16 08:30:53;;;;;;;22.85;20.10;;;9.10;99.90;;;;;;5035517;28;20205;-59
2022/03/16 08:33:22;;;;;;;31.05;19.25;;;9.30;99.90;;;;;;5036152;28;20309;-59
2022/03/16 08:35:49;;;;;;;23.80;20.60;;;9.30;99.90;;;;;;5035075;28;20253;-59
2022/03/16 08:38:16;;;;;;;26.67;20.37;;;9.30;99.90;;;;;;5034170;28;20468;-57
2022/03/16 08:40:43;;;;;;;27.37;20.97;;;9.30;99.90;;;;;;5034253;28;20433;-59
2022/03/16 08:43:11;;;;;;;22.40;19.60;;;9.40;99.90;;;;;;5034950;28;20488;-58
2022/03/16 08:45:40;;;;;;;23.73;19.90;;;9.60;99.90;;;;;;5034889;28;20956;-58
2022/03/16 08:48:07;;;;;;;22.90;19.60;;;9.60;99.90;;;;;;5032976;28;20480;-57
2022/03/16 08:50:35;;;;;;;22.63;19.80;;;9.50;99.90;;;;;;5032891;28;21026;-60
2022/03/16 08:53:02;;;;;;;22.10;19.37;;;9.40;99.90;;;;;;5032841;28;21012;-58
2022/03/16 08:55:29;;;;;;;24.60;21.33;;;9.10;99.90;;;;;;5035480;28;20448;-58
2022/03/16 08:57:57;;;;;;;23.03;20.27;;;9.10;99.90;;;;;;5037209;28;20445;-59
2022/03/16 09:00:26;;;;;;;21.77;19.05;;;9.00;99.90;;;;;;5042429;28;20449;-58
2022/03/16 09:02:53;;;;;;;25.43;19.63;;;9.00;99.90;;;;;;5042439;28;20335;-59
2022/03/16 09:05:20;;;;;;;24.55;21.15;;;9.00;99.90;;;;;;5040868;28;20437;-60
2022/03/16 09:07:47;;;;;;;24.77;21.07;;;9.20;99.90;;;;;;5043300;28;20206;-58
2022/03/16 09:10:14;;;;;;;28.90;20.67;;;9.40;99.90;;;;;;5037464;28;20484;-58
2022/03/16 09:12:42;;;;;;;26.83;22.13;;;9.60;99.90;;;;;;5036346;28;20464;-59
2022/03/16 09:15:09;;;;;;;24.33;20.07;;;9.80;99.90;;;;;;5036583;28;20464;-58
2022/03/16 09:17:38;;;;;;;27.70;20.27;;;10.00;99.90;;;;;;5036602;28;20471;-59
2022/03/16 09:20:06;;;;;;;22.47;20.07;;;10.20;99.90;;;;;;5035988;28;20960;-57
2022/03/16 09:22:33;;;;;;;23.80;19.30;;;10.40;99.90;;;;;;5036471;28;20487;-59
2022/03/16 09:25:01;;;;;;;27.27;21.47;;;10.50;99.90;;;;;;5045436;28;20426;-58
2022/03/16 09:27:28;;;;;;;26.33;20.70;;;10.60;99.90;;;;;;5051261;28;20484;-59
2022/03/16 09:29:55;;;;;;;25.83;18.53;;;10.70;99.90;;;;;;5049237;28;20489;-58
2022/03/16 09:32:22;;;;;;;26.27;21.20;;;10.80;99.90;;;;;;5041985;28;21019;-59
2022/03/16 09:34:52;;;;;;;25.83;20.10;;;10.90;99.70;;;;;;5036923;28;20538;-59
2022/03/16 09:37:19;;;;;;;24.60;20.60;;;10.90;99.20;;;;;;5036159;28;20453;-59
2022/03/16 09:39:46;;;;;;;25.77;21.30;;;10.90;99.40;;;;;;5036223;28;20441;-58
2022/03/16 09:42:14;;;;;;;29.27;22.27;;;11.00;98.90;;;;;;5035984;28;21003;-58
2022/03/16 09:44:41;;;;;;;27.80;22.20;;;11.10;98.60;;;;;;5036234;28;20820;-59
2022/03/16 09:47:09;;;;;;;26.03;20.60;;;11.20;97.80;;;;;;5036588;28;20499;-59
2022/03/16 09:49:38;;;;;;;25.80;21.17;;;11.30;97.20;;;;;;5035611;28;20551;-59
2022/03/16 09:52:09;;;;;;;26.07;21.20;;;11.30;96.80;;;;;;5035505;28;20965;-57
2022/03/16 09:54:37;;;;;;;27.50;21.80;;;11.40;96.70;;;;;;5035862;28;20765;-59
2022/03/16 09:57:05;;;;;;;26.70;20.20;;;11.40;96.10;;;;;;5035823;28;20480;-58
2022/03/16 09:59:32;;;;;;;28.47;21.23;;;11.50;96.00;;;;;;5035839;28;20448;-59
2022/03/16 10:02:04;;;;;;;27.13;20.53;;;11.70;95.50;;;;;;5036404;28;20452;-60
2022/03/16 10:04:33;;;;;;;29.23;22.20;;;11.80;94.90;;;;;;5036925;28;20445;-58
2022/03/16 10:07:01;;;;;;;25.47;20.60;;;12.00;94.40;;;;;;5036377;28;20539;-59
2022/03/16 10:15:07;;;;;;;24.90;19.65;;;12.50;92.70;;;;;;5046939;28;20449;-57
2022/03/16 10:17:47;;;;;;;23.20;17.10;;;12.60;91.80;;;;;;5044787;28;20190;-59
2022/03/16 10:20:28;;;;;;;21.20;15.87;;;12.70;91.10;;;;;;5045815;28;20790;-58
2022/03/16 10:23:02;;;;;;;21.47;16.43;;;12.90;90.10;;;;;;5066332;22;20558;-57
2022/03/16 10:25:34;;;;;;;21.00;15.87;;;13.00;89.00;;;;;;5035231;28;20437;-57
2022/03/16 10:28:10;;;;;;;22.90;15.60;;;13.10;87.50;;;;;;5034988;28;20445;-55
2022/03/16 10:30:38;;;;;;;22.93;14.67;;;13.30;85.50;;;;;;5035040;28;20464;-56
2022/03/16 10:33:06;;;;;;;20.00;13.80;;;13.40;83.30;;;;;;5034722;28;20464;-57
2022/03/16 10:35:34;;;;;;;20.90;13.40;;;13.40;81.50;;;;;;5035342;28;20449;-56
2022/03/16 10:38:10;;;;;;;20.40;13.47;;;13.40;80.10;;;;;;5034505;28;20452;-56
2022/03/16 10:40:38;;;;;;;17.20;12.17;;;13.40;78.40;;;;;;5034948;28;20451;-56
2022/03/16 10:48:59;;;;;;;22.92;14.23;;;13.60;73.50;;;;;;5034351;28;20500;-57
2022/03/16 10:51:26;;;;;;;16.85;13.20;;;13.60;69.10;;;;;;5033956;28;20918;-56
2022/03/16 10:53:54;;;;;;;17.73;13.53;;;13.70;68.90;;;;;;5034620;28;20222;-58
2022/03/16 10:56:23;;;;;;;18.03;12.30;;;13.90;68.60;;;;;;5034444;28;20453;-58
2022/03/16 10:58:53;;;;;;;17.73;11.63;;;14.10;67.90;;;;;;5034214;28;20448;-57
2022/03/16 11:01:22;;;;;;;14.93;10.57;;;14.20;66.80;;;;;;5034819;28;20876;-59
2022/03/16 11:03:51;;;;;;;14.87;10.27;;;14.30;65.50;;;;;;5035357;28;20465;-59
2022/03/16 11:06:22;;;;;;;17.73;12.57;;;14.40;64.90;;;;;;5034095;28;20792;-59
2022/03/16 11:08:50;;;;;;;14.93;11.40;;;14.50;64.20;;;;;;5033630;28;20437;-57
2022/03/16 11:14:05;;;;;;;16.33;11.07;;;14.80;62.60;;;;;;5032847;28;20991;-59
2022/03/16 11:16:33;;;;;;;14.60;10.97;;;14.90;59.70;;;;;;5033743;28;20207;-58
2022/03/16 11:19:03;;;;;;;16.10;11.40;;;15.00;58.90;;;;;;5032923;28;20448;-58
2022/03/16 11:21:35;;;;;;;16.10;11.73;;;15.00;58.70;;;;;;5033580;28;20532;-59
2022/03/16 11:24:25;;;;;;;13.13;10.80;;;15.10;58.40;;;;;;5035594;28;20484;-56
2022/03/16 11:27:10;;;;;;;16.70;12.20;;;15.40;58.20;;;;;;5033608;28;20437;-58
2022/03/16 11:29:50;;;;;;;15.27;12.00;;;15.50;57.70;;;;;;5033240;28;20489;-59
2022/03/16 11:32:20;;;;;;;18.23;12.97;;;15.40;56.90;;;;;;5033372;28;20436;-58
2022/03/16 11:34:50;;;;;;;15.90;12.40;;;15.30;56.90;;;;;;5033642;28;20548;-59
2022/03/16 11:37:18;;;;;;;21.57;11.97;;;15.20;57.00;;;;;;5034343;28;20456;-58
2022/03/16 11:39:47;;;;;;;16.33;11.40;;;15.30;57.00;;;;;;5033477;28;20449;-58
2022/03/16 11:42:17;;;;;;;17.63;12.43;;;15.30;56.60;;;;;;5033145;28;20451;-58
2022/03/16 11:44:47;;;;;;;16.93;12.90;;;15.20;56.50;;;;;;5032977;28;20882;-59
2022/03/16 11:47:36;;;;;;;19.30;12.00;;;15.10;56.30;;;;;;5033073;28;20536;-59
2022/03/16 11:50:16;;;;;;;15.47;11.77;;;15.10;55.90;;;;;;5033495;28;20830;-60
2022/03/16 11:53:01;;;;;;;14.53;11.13;;;15.00;56.10;;;;;;5033694;28;20792;-58
2022/03/16 11:55:46;;;;;;;14.90;10.57;;;14.90;55.80;;;;;;5033824;28;20448;-57
2022/03/16 11:58:17;;;;;;;15.70;11.60;;;14.90;55.70;;;;;;5033203;28;20516;-60
2022/03/16 12:00:48;;;;;;;15.00;11.37;;;14.90;55.40;;;;;;5036207;28;20448;-59
2022/03/16 12:03:23;;;;;;;18.30;10.20;;;14.80;55.00;;;;;;5033182;28;20480;-59
2022/03/16 12:05:59;;;;;;;14.90;10.90;;;14.90;55.00;;;;;;5033989;28;20479;-59
2022/03/16 12:08:37;;;;;;;14.60;10.33;;;14.90;55.00;;;;;;5033606;28;20440;-60
2022/03/16 12:13:49;;;;;;;14.33;10.60;;;15.10;55.00;;;;;;5033122;28;20576;-58
2022/03/16 12:16:20;;;;;;;13.20;10.47;;;15.10;54.80;;;;;;5033047;28;20827;-60
2022/03/16 12:18:48;;;;;;;16.20;10.80;;;15.10;54.50;;;;;;5033160;28;20437;-59
2022/03/16 12:21:17;;;;;;;13.63;9.57;;;15.10;54.50;;;;;;5032931;28;20449;-59
2022/03/16 12:25:08;;;;;;;16.17;10.53;;;15.10;54.70;;;;;;5032497;28;20842;-58
2022/03/16 12:29:31;;;;;;;17.47;10.33;;;15.10;54.40;;;;;;5033286;28;20429;-59
2022/03/16 12:32:00;;;;;;;17.03;9.23;;;15.00;54.50;;;;;;5036883;28;20780;-59
2022/03/16 12:34:29;;;;;;;11.57;9.10;;;15.10;54.70;;;;;;5036933;28;20973;-58
2022/03/16 12:36:59;;;;;;;12.30;9.20;;;15.10;54.50;;;;;;5036920;28;20549;-58
2022/03/16 12:39:29;;;;;;;12.63;9.27;;;15.10;54.30;;;;;;5036994;28;20452;-58
2022/03/16 12:44:55;;;;;;;13.27;9.47;;;15.20;54.30;;;;;;5036618;28;20440;-55
2022/03/16 12:47:31;;;;;;;15.50;10.40;;;15.10;54.60;;;;;;5036916;28;20432;-59
2022/03/16 12:50:01;;;;;;;15.80;9.87;;;15.00;54.60;;;;;;5036532;28;20597;-58
2022/03/16 12:52:30;;;;;;;12.20;9.90;;;14.90;54.60;;;;;;5036767;28;20844;-58
2022/03/16 12:54:57;;;;;;;12.70;9.80;;;14.80;54.90;;;;;;5036514;28;20449;-57
2022/03/16 12:57:25;;;;;;;15.03;11.60;;;14.90;55.70;;;;;;5036477;28;20964;-59
2022/03/16 12:59:55;;;;;;;18.57;12.63;;;14.90;55.20;;;;;;5036240;28;20817;-59
2022/03/16 13:02:24;;;;;;;16.27;13.40;;;14.90;55.50;;;;;;5041130;28;20508;-59
2022/03/16 13:04:54;;;;;;;17.10;12.53;;;14.80;55.90;;;;;;5036223;28;20499;-59
2022/03/16 13:07:23;;;;;;;16.80;11.83;;;14.70;56.10;;;;;;5036393;28;20511;-59